createdAt,value
2023-05-13T00:00:33.378Z,129.84
2023-05-13T00:01:33.360Z,129.02
2023-05-13T00:02:33.419Z,128.90
2023-05-13T00:03:33.443Z,128.68
2023-05-13T00:04:33.373Z,131.93
2023-05-13T00:05:33.398Z,133.03
2023-05-13T00:06:33.442Z,130.57
2023-05-13T00:07:33.431Z,130.85
2023-05-13T00:08:33.434Z,131.21
2023-05-13T00:09:33.421Z,132.20
2023-05-13T00:10:33.438Z,130.42
2023-05-13T00:11:33.433Z,133.45
2023-05-13T00:12:33.421Z,132.99
2023-05-13T00:13:33.408Z,132.36
2023-05-13T00:14:33.409Z,130.81
2023-05-13T00:15:33.401Z,130.42
2023-05-13T00:16:33.504Z,133.79
2023-05-13T00:17:33.480Z,131.60
2023-05-13T00:18:33.422Z,132.17
2023-05-13T00:19:33.394Z,131.78
2023-05-13T00:20:33.392Z,132.99
2023-05-13T00:21:33.410Z,130.59
2023-05-13T00:22:33.387Z,133.10
2023-05-13T00:23:33.395Z,133.95
2023-05-13T00:24:33.394Z,134.21
2023-05-13T00:25:33.398Z,130.31
2023-05-13T00:26:33.372Z,129.13
2023-05-13T00:27:33.402Z,132.36
2023-05-13T00:28:33.390Z,132.51
2023-05-13T00:29:33.381Z,138.37
2023-05-13T00:30:33.373Z,145.44
2023-05-13T00:31:33.411Z,140.74
2023-05-13T00:32:33.415Z,139.11
2023-05-13T00:33:33.369Z,136.69
2023-05-13T00:34:33.356Z,132.97
2023-05-13T00:35:33.368Z,131.53
2023-05-13T00:36:33.367Z,126.12
2023-05-13T00:37:33.367Z,127.42
2023-05-13T00:38:33.447Z,128.05
2023-05-13T00:39:33.366Z,129.58
2023-05-13T00:40:33.341Z,128.45
2023-05-13T00:41:33.340Z,126.12
2023-05-13T00:42:33.343Z,127.64
2023-05-13T00:43:33.338Z,123.96
2023-05-13T00:44:33.343Z,121.08
2023-05-13T00:45:33.362Z,120.58
2023-05-13T00:46:33.343Z,118.77
2023-05-13T00:47:33.398Z,120.33
2023-05-13T00:48:33.333Z,122.99
2023-05-13T00:49:33.323Z,126.99
2023-05-13T00:50:33.329Z,126.97
2023-05-13T00:51:33.329Z,128.68
2023-05-13T00:52:33.324Z,131.89
2023-05-13T00:53:33.312Z,133.12
2023-05-13T00:54:33.313Z,131.85
2023-05-13T00:55:33.340Z,129.69
2023-05-13T00:56:33.309Z,129.53
2023-05-13T00:57:33.321Z,128.27
2023-05-13T00:58:33.285Z,129.15
2023-05-13T00:59:33.301Z,131.79
2023-05-13T01:00:33.293Z,130.75
2023-05-13T01:01:33.355Z,130.34
2023-05-13T01:02:33.334Z,132.03
2023-05-13T01:03:33.339Z,131.66
2023-05-13T01:04:33.281Z,127.62
2023-05-13T01:05:33.291Z,128.71
2023-05-13T01:06:33.283Z,130.38
2023-05-13T01:07:33.283Z,132.85
2023-05-13T01:08:33.258Z,133.40
2023-05-13T01:09:33.278Z,134.85
2023-05-13T01:10:33.287Z,135.29
2023-05-13T01:11:33.260Z,136.22
2023-05-13T01:12:33.330Z,132.23
2023-05-13T01:13:33.284Z,129.32
2023-05-13T01:14:33.265Z,130.45
2023-05-13T01:15:33.286Z,128.70
2023-05-13T01:16:33.332Z,127.96
2023-05-13T01:17:33.313Z,128.61
2023-05-13T01:18:33.326Z,127.79
2023-05-13T01:19:33.297Z,127.98
2023-05-13T01:20:33.291Z,131.00
2023-05-13T01:21:33.308Z,130.68
2023-05-13T01:22:33.302Z,130.43
2023-05-13T01:23:33.288Z,130.53
2023-05-13T01:24:33.300Z,130.70
2023-05-13T01:25:33.289Z,129.82
2023-05-13T01:26:33.302Z,129.26
2023-05-13T01:27:33.311Z,127.18
2023-05-13T01:28:33.315Z,127.63
2023-05-13T01:29:33.317Z,128.02
2023-05-13T01:30:33.325Z,130.98
2023-05-13T01:31:33.425Z,127.97
2023-05-13T01:32:33.349Z,132.30
2023-05-13T01:33:33.324Z,127.80
2023-05-13T01:34:33.320Z,124.99
2023-05-13T01:35:33.346Z,128.36
2023-05-13T01:36:33.323Z,132.95
2023-05-13T01:37:33.355Z,133.44
2023-05-13T01:38:33.329Z,137.61
2023-05-13T01:39:33.333Z,135.54
2023-05-13T01:40:33.429Z,136.43
2023-05-13T01:41:33.346Z,138.06
2023-05-13T01:42:33.352Z,140.46
2023-05-13T01:43:33.353Z,138.94
2023-05-13T01:44:33.343Z,140.64
2023-05-13T01:45:33.328Z,139.26
2023-05-13T01:46:33.427Z,141.03
2023-05-13T01:47:33.382Z,141.44
2023-05-13T01:48:33.366Z,141.53
2023-05-13T01:49:33.341Z,144.09
2023-05-13T01:50:33.356Z,139.72
2023-05-13T01:51:33.374Z,137.31
2023-05-13T01:52:33.365Z,139.44
2023-05-13T01:53:33.389Z,139.21
2023-05-13T01:54:33.380Z,139.79
2023-05-13T01:55:33.375Z,138.45
2023-05-13T01:56:33.383Z,135.99
2023-05-13T01:57:33.398Z,136.21
2023-05-13T01:58:33.389Z,136.28
2023-05-13T01:59:33.408Z,136.39
2023-05-13T02:00:33.415Z,136.45
2023-05-13T02:01:33.455Z,138.55
2023-05-13T02:02:33.518Z,139.15
2023-05-13T02:03:33.503Z,136.89
2023-05-13T02:04:33.422Z,132.95
2023-05-13T02:05:33.455Z,131.55
2023-05-13T02:06:33.433Z,132.55
2023-05-13T02:07:33.418Z,136.04
2023-05-13T02:08:33.441Z,131.44
2023-05-13T02:09:33.430Z,131.21
2023-05-13T02:10:33.441Z,129.83
2023-05-13T02:11:33.465Z,129.46
2023-05-13T02:12:33.461Z,130.72
2023-05-13T02:13:33.465Z,130.97
2023-05-13T02:14:33.478Z,129.06
2023-05-13T02:15:33.474Z,126.85
2023-05-13T02:16:33.523Z,130.91
2023-05-13T02:17:33.543Z,136.81
2023-05-13T02:18:33.524Z,135.16
2023-05-13T02:19:33.509Z,133.73
2023-05-13T02:20:33.513Z,136.91
2023-05-13T02:21:33.507Z,139.78
2023-05-13T02:22:33.519Z,139.54
2023-05-13T02:23:33.527Z,136.82
2023-05-13T02:24:33.549Z,142.97
2023-05-13T02:25:33.554Z,145.10
2023-05-13T02:26:33.563Z,145.83
2023-05-13T02:27:33.568Z,144.97
2023-05-13T02:28:33.578Z,145.76
2023-05-13T02:29:33.592Z,142.79
2023-05-13T02:30:33.608Z,143.65
2023-05-13T02:31:33.603Z,143.68
2023-05-13T02:32:33.627Z,141.48
2023-05-13T02:33:33.613Z,141.47
2023-05-13T02:34:33.610Z,141.87
2023-05-13T02:35:33.631Z,143.41
2023-05-13T02:36:33.623Z,146.23
2023-05-13T02:37:33.634Z,145.16
2023-05-13T02:38:33.624Z,148.62
2023-05-13T02:39:33.646Z,148.24
2023-05-13T02:40:33.649Z,146.49
2023-05-13T02:41:33.643Z,148.28
2023-05-13T02:42:33.654Z,149.07
2023-05-13T02:43:33.697Z,152.17
2023-05-13T02:44:33.682Z,153.00
2023-05-13T02:45:33.669Z,152.52
2023-05-13T02:46:33.690Z,154.11
2023-05-13T02:47:33.735Z,154.94
2023-05-13T02:48:33.705Z,157.73
2023-05-13T02:49:33.707Z,158.21
2023-05-13T02:50:33.708Z,156.05
2023-05-13T02:51:33.714Z,158.22
2023-05-13T02:52:33.727Z,157.99
2023-05-13T02:53:33.737Z,156.31
2023-05-13T02:54:33.753Z,156.63
2023-05-13T02:55:33.752Z,155.61
2023-05-13T02:56:33.747Z,155.95
2023-05-13T02:57:33.772Z,155.31
2023-05-13T02:58:33.766Z,153.73
2023-05-13T02:59:33.767Z,154.19
2023-05-13T03:00:33.788Z,153.75
2023-05-13T03:01:33.818Z,152.07
2023-05-13T03:02:33.863Z,152.60
2023-05-13T03:03:33.941Z,150.85
2023-05-13T03:04:33.806Z,154.21
2023-05-13T03:05:33.827Z,153.47
2023-05-13T03:06:33.864Z,153.95
2023-05-13T03:07:33.828Z,153.14
2023-05-13T03:08:33.852Z,153.91
2023-05-13T03:09:33.846Z,153.06
2023-05-13T03:10:33.852Z,154.60
2023-05-13T03:11:33.853Z,158.51
2023-05-13T03:12:33.879Z,158.17
2023-05-13T03:13:33.895Z,158.00
2023-05-13T03:14:33.893Z,161.53
2023-05-13T03:15:33.902Z,160.71
2023-05-13T03:16:33.949Z,160.92
2023-05-13T03:17:33.948Z,163.41
2023-05-13T03:18:33.971Z,162.29
2023-05-13T03:19:33.929Z,159.57
2023-05-13T03:20:33.943Z,162.45
2023-05-13T03:21:33.946Z,159.72
2023-05-13T03:22:33.972Z,161.13
2023-05-13T03:23:33.979Z,162.44
2023-05-13T03:24:34.017Z,160.98
2023-05-13T03:25:34.007Z,162.63
2023-05-13T03:26:33.998Z,164.44
2023-05-13T03:27:34.009Z,162.59
2023-05-13T03:28:34.030Z,164.99
2023-05-13T03:29:34.041Z,166.16
2023-05-13T03:30:34.046Z,164.01
2023-05-13T03:31:34.102Z,164.40
2023-05-13T03:32:34.067Z,165.74
2023-05-13T03:33:34.107Z,164.51
2023-05-13T03:34:34.133Z,162.17
2023-05-13T03:35:34.133Z,164.16
2023-05-13T03:36:34.144Z,160.61
2023-05-13T03:37:34.146Z,160.85
2023-05-13T03:38:34.185Z,161.11
2023-05-13T03:39:34.179Z,158.69
2023-05-13T03:40:34.170Z,159.97
2023-05-13T03:41:34.185Z,158.93
2023-05-13T03:42:34.208Z,156.51
2023-05-13T03:43:34.211Z,152.46
2023-05-13T03:44:34.223Z,153.77
2023-05-13T03:45:34.253Z,153.64
2023-05-13T03:46:34.331Z,152.67
2023-05-13T03:47:34.289Z,150.47
2023-05-13T03:48:34.285Z,154.17
2023-05-13T03:49:34.300Z,152.55
2023-05-13T03:50:34.300Z,150.51
2023-05-13T03:51:34.309Z,148.91
2023-05-13T03:52:34.337Z,145.16
2023-05-13T03:53:34.334Z,145.54
2023-05-13T03:54:34.359Z,145.12
2023-05-13T03:55:34.371Z,142.20
2023-05-13T03:56:34.385Z,141.51
2023-05-13T03:57:34.381Z,139.77
2023-05-13T03:58:34.438Z,139.99
2023-05-13T03:59:34.403Z,141.65
2023-05-13T04:00:34.451Z,140.55
2023-05-13T04:01:34.432Z,140.72
2023-05-13T04:02:34.561Z,136.71
2023-05-13T04:03:34.462Z,138.22
2023-05-13T04:04:34.496Z,139.39
2023-05-13T04:05:34.483Z,139.36
2023-05-13T04:06:34.488Z,143.61
2023-05-13T04:07:34.514Z,143.49
2023-05-13T04:08:34.518Z,147.99
2023-05-13T04:09:34.552Z,149.86
2023-05-13T04:10:34.551Z,154.43
2023-05-13T04:11:34.560Z,156.43
2023-05-13T04:12:34.571Z,156.02
2023-05-13T04:13:34.589Z,157.37
2023-05-13T04:14:34.613Z,160.11
2023-05-13T04:15:34.611Z,162.44
2023-05-13T04:16:34.665Z,166.58
2023-05-13T04:17:34.683Z,167.62
2023-05-13T04:18:34.698Z,170.72
2023-05-13T04:19:34.669Z,169.22
2023-05-13T04:20:34.699Z,171.86
2023-05-13T04:21:34.718Z,173.62
2023-05-13T04:22:34.730Z,172.52
2023-05-13T04:23:34.734Z,173.49
2023-05-13T04:24:34.757Z,174.33
2023-05-13T04:25:34.754Z,174.03
2023-05-13T04:26:34.772Z,172.94
2023-05-13T04:27:34.796Z,171.30
2023-05-13T04:28:34.792Z,167.13
2023-05-13T04:29:34.811Z,165.07
2023-05-13T04:30:34.837Z,164.29
2023-05-13T04:31:34.971Z,164.13
2023-05-13T04:32:34.896Z,162.98
2023-05-13T04:33:34.870Z,160.60
2023-05-13T04:34:34.892Z,162.83
2023-05-13T04:35:34.914Z,158.44
2023-05-13T04:36:34.917Z,158.36
2023-05-13T04:37:34.929Z,159.29
2023-05-13T04:38:34.927Z,159.53
2023-05-13T04:39:34.959Z,153.15
2023-05-13T04:40:34.973Z,153.40
2023-05-13T04:41:34.992Z,152.32
2023-05-13T04:42:34.985Z,151.96
2023-05-13T04:43:35.006Z,149.13
2023-05-13T04:44:35.035Z,149.59
2023-05-13T04:45:35.035Z,147.81
2023-05-13T04:46:35.118Z,146.66
2023-05-13T04:47:35.109Z,147.48
2023-05-13T04:48:35.074Z,141.79
2023-05-13T04:49:35.119Z,142.04
2023-05-13T04:50:35.097Z,142.73
2023-05-13T04:51:35.122Z,140.88
2023-05-13T04:52:35.163Z,138.90
2023-05-13T04:53:35.163Z,136.25
2023-05-13T04:54:35.177Z,136.46
2023-05-13T04:55:35.218Z,137.79
2023-05-13T04:56:35.225Z,138.68
2023-05-13T04:57:35.205Z,141.70
2023-05-13T04:58:35.220Z,142.70
2023-05-13T04:59:35.251Z,143.36
2023-05-13T05:00:35.263Z,142.22
2023-05-13T05:01:35.304Z,141.90
2023-05-13T05:02:35.344Z,139.56
2023-05-13T05:03:35.373Z,139.03
2023-05-13T05:04:35.303Z,137.35
2023-05-13T05:05:35.325Z,136.49
2023-05-13T05:06:35.342Z,138.64
2023-05-13T05:07:35.364Z,136.19
2023-05-13T05:08:35.379Z,137.53
2023-05-13T05:09:35.393Z,136.90
2023-05-13T05:10:35.429Z,135.88
2023-05-13T05:11:35.423Z,136.71
2023-05-13T05:12:35.438Z,135.12
2023-05-13T05:13:35.453Z,134.53
2023-05-13T05:14:35.469Z,135.47
2023-05-13T05:15:35.472Z,138.28
2023-05-13T05:16:35.503Z,143.32
2023-05-13T05:17:35.636Z,143.74
2023-05-13T05:18:35.623Z,143.88
2023-05-13T05:19:35.598Z,149.75
2023-05-13T05:20:35.562Z,144.95
2023-05-13T05:21:35.583Z,147.60
2023-05-13T05:22:35.592Z,151.82
2023-05-13T05:23:35.607Z,150.05
2023-05-13T05:24:35.620Z,150.29
2023-05-13T05:25:35.625Z,150.52
2023-05-13T05:26:35.633Z,148.69
2023-05-13T05:27:35.656Z,149.32
2023-05-13T05:28:35.666Z,148.46
2023-05-13T05:29:35.690Z,149.58
2023-05-13T05:30:35.697Z,148.74
2023-05-13T05:31:35.755Z,150.89
2023-05-13T05:32:35.765Z,150.29
2023-05-13T05:33:35.744Z,149.90
2023-05-13T05:34:35.750Z,148.84
2023-05-13T05:35:35.766Z,149.38
2023-05-13T05:36:38.094Z,151.52
2023-05-13T05:37:35.907Z,153.03
2023-05-13T05:38:35.941Z,151.24
2023-05-13T05:39:35.946Z,151.80
2023-05-13T05:40:35.954Z,151.63
2023-05-13T05:41:35.945Z,152.00
2023-05-13T05:42:35.965Z,154.25
2023-05-13T05:43:35.971Z,152.96
2023-05-13T05:44:35.987Z,154.92
2023-05-13T05:45:36.111Z,154.82
2023-05-13T05:46:36.032Z,151.61
2023-05-13T05:47:36.062Z,150.44
2023-05-13T05:48:36.036Z,152.44
2023-05-13T05:49:36.015Z,153.03
2023-05-13T05:50:36.023Z,153.36
2023-05-13T05:51:36.043Z,155.25
2023-05-13T05:52:36.043Z,154.36
2023-05-13T05:53:36.051Z,157.10
2023-05-13T05:54:36.047Z,158.68
2023-05-13T05:55:36.076Z,158.00
2023-05-13T05:56:36.076Z,158.19
2023-05-13T05:57:36.082Z,156.83
2023-05-13T05:58:36.095Z,156.73
2023-05-13T05:59:36.081Z,156.09
2023-05-13T06:00:36.088Z,156.86
2023-05-13T06:01:36.077Z,157.62
2023-05-13T06:02:36.167Z,156.49
2023-05-13T06:03:36.292Z,159.29
2023-05-13T06:04:36.152Z,159.64
2023-05-13T06:05:36.105Z,159.27
2023-05-13T06:06:36.154Z,158.27
2023-05-13T06:07:36.130Z,154.97
2023-05-13T06:08:36.148Z,153.75
2023-05-13T06:09:36.171Z,151.84
2023-05-13T06:10:36.150Z,154.75
2023-05-13T06:11:36.155Z,156.04
2023-05-13T06:12:36.185Z,160.27
2023-05-13T06:13:36.175Z,159.12
2023-05-13T06:14:36.198Z,159.51
2023-05-13T06:15:36.226Z,158.32
2023-05-13T06:16:36.233Z,157.39
2023-05-13T06:17:36.258Z,156.56
2023-05-13T06:18:36.220Z,153.51
2023-05-13T06:19:36.220Z,155.49
2023-05-13T06:20:36.279Z,157.47
2023-05-13T06:21:36.237Z,158.34
2023-05-13T06:22:36.260Z,155.35
2023-05-13T06:23:36.273Z,155.86
2023-05-13T06:24:36.273Z,157.17
2023-05-13T06:25:36.265Z,155.57
2023-05-13T06:26:36.288Z,161.40
2023-05-13T06:27:36.299Z,156.99
2023-05-13T06:28:36.285Z,157.04
2023-05-13T06:29:36.294Z,158.75
2023-05-13T06:30:36.298Z,160.70
2023-05-13T06:31:36.335Z,159.58
2023-05-13T06:32:36.614Z,157.26
2023-05-13T06:33:36.433Z,156.60
2023-05-13T06:34:36.330Z,155.61
2023-05-13T06:35:36.346Z,153.67
2023-05-13T06:36:36.334Z,149.15
2023-05-13T06:37:36.337Z,156.16
2023-05-13T06:38:36.356Z,151.64
2023-05-13T06:39:36.365Z,152.72
2023-05-13T06:40:36.357Z,149.69
2023-05-13T06:41:36.373Z,148.59
2023-05-13T06:42:36.369Z,149.87
2023-05-13T06:43:36.399Z,151.44
2023-05-13T06:44:36.403Z,154.28
2023-05-13T06:45:36.395Z,151.80
2023-05-13T06:46:36.453Z,151.66
2023-05-13T06:47:36.416Z,150.44
2023-05-13T06:48:36.400Z,147.83
2023-05-13T06:49:36.430Z,148.07
2023-05-13T06:50:36.438Z,142.71
2023-05-13T06:51:36.445Z,142.43
2023-05-13T06:52:36.455Z,146.11
2023-05-13T06:53:36.471Z,146.04
2023-05-13T06:54:36.461Z,138.89
2023-05-13T06:55:36.466Z,138.05
2023-05-13T06:56:36.483Z,135.51
2023-05-13T06:57:42.853Z,133.55
2023-05-13T06:58:37.486Z,133.69
2023-05-13T06:59:36.514Z,134.58
2023-05-13T07:00:36.509Z,134.75
2023-05-13T07:01:36.514Z,138.16
2023-05-13T07:02:36.480Z,136.10
2023-05-13T07:03:36.492Z,131.69
2023-05-13T07:04:36.460Z,135.40
2023-05-13T07:05:36.452Z,136.16
2023-05-13T07:06:36.443Z,133.57
2023-05-13T07:07:36.427Z,133.98
2023-05-13T07:08:36.427Z,138.18
2023-05-13T07:09:36.420Z,137.99
2023-05-13T07:10:36.408Z,141.61
2023-05-13T07:11:36.404Z,143.31
2023-05-13T07:12:36.397Z,142.64
2023-05-13T07:13:36.714Z,140.48
2023-05-13T07:14:36.379Z,144.38
2023-05-13T07:15:36.365Z,146.21
2023-05-13T07:16:36.409Z,144.83
2023-05-13T07:17:36.466Z,145.97
2023-05-13T07:18:36.407Z,144.31
2023-05-13T07:19:36.356Z,140.75
2023-05-13T07:20:36.345Z,141.48
2023-05-13T07:21:36.333Z,141.47
2023-05-13T07:22:36.315Z,140.88
2023-05-13T07:23:36.306Z,140.07
2023-05-13T07:24:36.320Z,141.93
2023-05-13T07:25:36.295Z,143.49
2023-05-13T07:26:36.298Z,143.20
2023-05-13T07:27:36.281Z,146.36
2023-05-13T07:28:36.299Z,143.46
2023-05-13T07:29:36.280Z,145.08
2023-05-13T07:30:36.322Z,146.09
2023-05-13T07:31:36.272Z,147.58
2023-05-13T07:32:36.279Z,146.40
2023-05-13T07:33:36.251Z,148.07
2023-05-13T07:34:36.256Z,145.83
2023-05-13T07:35:36.226Z,147.22
2023-05-13T07:36:36.220Z,147.65
2023-05-13T07:37:36.219Z,148.23
2023-05-13T07:38:36.209Z,147.48
2023-05-13T07:39:36.231Z,146.15
2023-05-13T07:40:36.209Z,146.60
2023-05-13T07:41:36.182Z,146.16
2023-05-13T07:42:36.202Z,146.35
2023-05-13T07:43:36.181Z,147.31
2023-05-13T07:44:36.202Z,142.18
2023-05-13T07:45:36.191Z,145.21
2023-05-13T07:46:36.225Z,145.16
2023-05-13T07:47:36.227Z,144.38
2023-05-13T07:48:36.177Z,143.46
2023-05-13T07:49:36.176Z,139.17
2023-05-13T07:50:36.173Z,139.05
2023-05-13T07:51:36.174Z,135.72
2023-05-13T07:52:36.158Z,143.23
2023-05-13T07:53:36.164Z,141.03
2023-05-13T07:54:36.173Z,142.90
2023-05-13T07:55:36.179Z,145.99
2023-05-13T07:56:36.167Z,150.63
2023-05-13T07:57:36.176Z,153.48
2023-05-13T07:58:36.141Z,148.84
2023-05-13T07:59:36.142Z,143.99
2023-05-13T08:00:36.134Z,141.47
2023-05-13T08:01:36.146Z,138.85
2023-05-13T08:02:36.241Z,135.79
2023-05-13T08:03:36.313Z,138.32
2023-05-13T08:04:36.145Z,138.25
2023-05-13T08:05:36.098Z,145.33
2023-05-13T08:06:37.163Z,146.33
2023-05-13T08:07:36.111Z,135.64
2023-05-13T08:08:36.111Z,133.25
2023-05-13T08:09:36.098Z,138.47
2023-05-13T08:10:36.095Z,139.24
2023-05-13T08:11:36.082Z,136.56
2023-05-13T08:12:36.102Z,132.71
2023-05-13T08:13:36.105Z,130.62
2023-05-13T08:14:36.116Z,129.34
2023-05-13T08:15:36.092Z,130.34
2023-05-13T08:16:36.148Z,133.65
2023-05-13T08:17:36.141Z,134.65
2023-05-13T08:18:36.177Z,136.75
2023-05-13T08:19:36.112Z,134.85
2023-05-13T08:20:36.074Z,142.16
2023-05-13T08:21:36.085Z,139.22
2023-05-13T08:22:36.081Z,144.76
2023-05-13T08:23:44.744Z,144.63
2023-05-13T08:24:37.114Z,144.24
2023-05-13T08:25:36.056Z,143.96
2023-05-13T08:26:36.051Z,145.00
2023-05-13T08:27:36.042Z,145.73
2023-05-13T08:28:36.034Z,143.63
2023-05-13T08:29:36.039Z,148.60
2023-05-13T08:30:36.036Z,145.44
2023-05-13T08:31:36.032Z,146.77
2023-05-13T08:32:36.054Z,148.77
2023-05-13T08:33:36.006Z,146.44
2023-05-13T08:34:35.999Z,151.15
2023-05-13T08:35:35.995Z,147.15
2023-05-13T08:36:35.989Z,156.56
2023-05-13T08:37:36.028Z,158.16
2023-05-13T08:38:36.084Z,156.47
2023-05-13T08:39:36.128Z,151.36
2023-05-13T08:40:36.190Z,148.23
2023-05-13T08:41:36.235Z,147.66
2023-05-13T08:42:36.271Z,150.88
2023-05-13T08:43:36.321Z,151.34
2023-05-13T08:44:36.356Z,151.01
2023-05-13T08:45:36.403Z,157.87
2023-05-13T08:46:36.534Z,160.42
2023-05-13T08:47:37.115Z,161.09
2023-05-13T08:48:36.546Z,163.98
2023-05-13T08:49:36.616Z,164.58
2023-05-13T08:50:36.637Z,165.20
2023-05-13T08:51:36.705Z,163.24
2023-05-13T08:52:36.762Z,161.21
2023-05-13T08:53:36.831Z,158.39
2023-05-13T08:54:36.881Z,162.77
2023-05-13T08:55:36.962Z,161.37
2023-05-13T08:56:36.999Z,160.80
2023-05-13T08:57:37.082Z,159.49
2023-05-13T08:58:37.131Z,161.36
2023-05-13T08:59:37.184Z,157.04
2023-05-13T09:00:37.261Z,156.65
2023-05-13T09:01:37.361Z,158.59
2023-05-13T09:02:37.448Z,154.28
2023-05-13T09:03:37.432Z,153.26
2023-05-13T09:04:37.558Z,152.53
2023-05-13T09:05:38.838Z,153.13
2023-05-13T09:06:37.612Z,154.09
2023-05-13T09:07:37.668Z,149.56
2023-05-13T09:08:37.736Z,147.32
2023-05-13T09:09:37.810Z,146.36
2023-05-13T09:10:37.856Z,143.02
2023-05-13T09:11:37.917Z,146.04
2023-05-13T09:12:37.975Z,150.03
2023-05-13T09:13:38.037Z,151.31
2023-05-13T09:14:38.080Z,149.15
2023-05-13T09:15:38.195Z,149.33
2023-05-13T09:16:38.248Z,144.69
2023-05-13T09:17:38.253Z,148.00
2023-05-13T09:18:38.488Z,148.51
2023-05-13T09:19:38.487Z,147.39
2023-05-13T09:20:38.496Z,148.52
2023-05-13T09:21:38.473Z,145.34
2023-05-13T09:22:38.543Z,143.20
2023-05-13T09:23:38.583Z,136.89
2023-05-13T09:24:38.672Z,137.97
2023-05-13T09:25:38.718Z,134.38
2023-05-13T09:26:38.762Z,135.58
2023-05-13T09:27:38.791Z,130.42
2023-05-13T09:28:38.848Z,131.66
2023-05-13T09:29:38.950Z,135.28
2023-05-13T09:30:38.963Z,134.95
2023-05-13T09:31:39.085Z,134.08
2023-05-13T09:32:39.101Z,134.21
2023-05-13T09:33:39.128Z,133.45
2023-05-13T09:34:39.197Z,117.89
2023-05-13T09:35:39.237Z,119.00
2023-05-13T09:36:39.280Z,119.19
2023-05-13T09:37:39.321Z,120.01
2023-05-13T09:38:39.356Z,122.01
2023-05-13T09:39:39.438Z,118.37
2023-05-13T09:40:39.456Z,112.77
2023-05-13T09:41:39.517Z,121.19
2023-05-13T09:42:39.565Z,110.19
2023-05-13T09:43:39.609Z,118.62
2023-05-13T09:44:39.644Z,137.83
2023-05-13T09:45:39.712Z,150.80
2023-05-13T09:46:39.767Z,151.43
2023-05-13T09:47:39.847Z,138.33
2023-05-13T09:48:39.853Z,138.24
2023-05-13T09:49:39.892Z,154.76
2023-05-13T09:50:39.954Z,163.86
2023-05-13T09:51:39.985Z,170.30
2023-05-13T09:52:40.039Z,173.65
2023-05-13T09:53:40.090Z,170.58
2023-05-13T09:54:40.111Z,174.35
2023-05-13T09:55:40.174Z,182.11
2023-05-13T09:56:40.220Z,180.09
2023-05-13T09:57:40.262Z,186.71
2023-05-13T09:58:40.305Z,173.78
2023-05-13T09:59:40.359Z,183.07
2023-05-13T10:00:40.669Z,186.54
2023-05-13T10:01:40.537Z,188.20
2023-05-13T10:02:40.545Z,188.80
2023-05-13T10:03:40.571Z,185.09
2023-05-13T10:04:40.557Z,190.36
2023-05-13T10:05:40.577Z,183.96
2023-05-13T10:06:40.627Z,182.05
2023-05-13T10:07:40.664Z,179.27
2023-05-13T10:08:40.727Z,173.21
2023-05-13T10:09:40.743Z,173.31
2023-05-13T10:10:40.778Z,173.42
2023-05-13T10:11:40.821Z,176.34
2023-05-13T10:12:40.863Z,170.74
2023-05-13T10:13:40.882Z,172.03
2023-05-13T10:14:40.933Z,174.67
2023-05-13T10:15:40.976Z,173.25
2023-05-13T10:16:41.067Z,172.44
2023-05-13T10:17:41.117Z,172.90
2023-05-13T10:18:41.060Z,168.20
2023-05-13T10:19:41.119Z,172.87
2023-05-13T10:20:41.125Z,170.15
2023-05-13T10:21:41.138Z,173.46
2023-05-13T10:22:41.187Z,165.90
2023-05-13T10:23:41.189Z,165.58
2023-05-13T10:24:41.243Z,168.33
2023-05-13T10:25:41.270Z,171.68
2023-05-13T10:26:41.305Z,165.84
2023-05-13T10:27:41.315Z,167.77
2023-05-13T10:28:41.322Z,164.97
2023-05-13T10:29:41.356Z,164.34
2023-05-13T10:30:41.373Z,165.65
2023-05-13T10:31:41.443Z,167.57
2023-05-13T10:32:41.440Z,164.05
2023-05-13T10:33:41.429Z,161.88
2023-05-13T10:34:41.443Z,163.17
2023-05-13T10:35:42.973Z,160.81
2023-05-13T10:36:41.489Z,161.84
2023-05-13T10:37:41.517Z,167.13
2023-05-13T10:38:41.534Z,160.65
2023-05-13T10:39:41.546Z,160.77
2023-05-13T10:40:41.559Z,158.10
2023-05-13T10:41:41.565Z,160.78
2023-05-13T10:42:41.591Z,164.90
2023-05-13T10:43:41.588Z,157.57
2023-05-13T10:44:41.594Z,159.65
2023-05-13T10:45:41.672Z,163.49
2023-05-13T10:46:41.672Z,161.78
2023-05-13T10:47:41.697Z,164.55
2023-05-13T10:48:41.867Z,161.66
2023-05-13T10:49:41.654Z,162.85
2023-05-13T10:50:41.685Z,162.57
2023-05-13T10:51:41.701Z,163.43
2023-05-13T10:52:41.702Z,162.06
2023-05-13T10:53:41.711Z,163.61
2023-05-13T10:54:41.742Z,165.55
2023-05-13T10:55:41.769Z,166.35
2023-05-13T10:56:41.752Z,161.81
2023-05-13T10:57:41.783Z,166.90
2023-05-13T10:58:41.805Z,165.27
2023-05-13T10:59:41.785Z,166.49
2023-05-13T11:00:41.800Z,170.53
2023-05-13T11:01:41.856Z,169.06
2023-05-13T11:02:41.915Z,171.57
2023-05-13T11:03:41.934Z,166.24
2023-05-13T11:04:41.859Z,168.34
2023-05-13T11:05:41.895Z,166.26
2023-05-13T11:06:41.885Z,171.70
2023-05-13T11:07:41.917Z,170.80
2023-05-13T11:08:41.923Z,168.02
2023-05-13T11:09:41.950Z,167.18
2023-05-13T11:10:41.955Z,166.52
2023-05-13T11:11:41.952Z,170.91
2023-05-13T11:12:41.970Z,171.03
2023-05-13T11:13:42.015Z,167.05
2023-05-13T11:14:42.007Z,165.17
2023-05-13T11:15:42.013Z,164.85
2023-05-13T11:16:42.047Z,161.85
2023-05-13T11:17:42.058Z,165.32
2023-05-13T11:18:42.095Z,163.11
2023-05-13T11:19:42.078Z,165.56
2023-05-13T11:20:52.068Z,165.17
2023-05-13T11:21:43.094Z,165.20
2023-05-13T11:22:42.078Z,164.08
2023-05-13T11:23:42.067Z,163.78
2023-05-13T11:24:42.071Z,164.66
2023-05-13T11:25:42.068Z,161.82
2023-05-13T11:26:42.055Z,160.81
2023-05-13T11:27:42.066Z,156.48
2023-05-13T11:28:42.048Z,157.57
2023-05-13T11:29:42.041Z,152.47
2023-05-13T11:30:42.023Z,155.37
2023-05-13T11:31:42.080Z,155.41
2023-05-13T11:32:42.039Z,152.81
2023-05-13T11:33:42.025Z,150.67
2023-05-13T11:34:41.991Z,147.82
2023-05-13T11:35:41.993Z,151.35
2023-05-13T11:36:41.994Z,150.90
2023-05-13T11:37:41.967Z,148.11
2023-05-13T11:38:41.959Z,145.99
2023-05-13T11:39:42.003Z,142.35
2023-05-13T11:40:41.948Z,142.19
2023-05-13T11:41:41.956Z,145.80
2023-05-13T11:42:41.949Z,142.13
2023-05-13T11:43:41.923Z,139.63
2023-05-13T11:44:41.929Z,140.19
2023-05-13T11:45:41.945Z,141.16
2023-05-13T11:46:41.905Z,134.43
2023-05-13T11:47:41.941Z,139.73
2023-05-13T11:48:41.903Z,138.62
2023-05-13T11:49:41.918Z,139.04
2023-05-13T11:50:41.882Z,139.02
2023-05-13T11:51:41.886Z,137.93
2023-05-13T11:52:41.861Z,139.90
2023-05-13T11:53:41.885Z,138.82
2023-05-13T11:54:41.870Z,136.48
2023-05-13T11:55:41.847Z,138.70
2023-05-13T11:56:41.835Z,136.61
2023-05-13T11:57:41.849Z,133.01
2023-05-13T11:58:41.822Z,133.37
2023-05-13T11:59:47.994Z,133.28
2023-05-13T12:00:43.978Z,133.50
2023-05-13T12:01:41.813Z,133.91
2023-05-13T12:02:41.876Z,132.70
2023-05-13T12:03:41.793Z,132.12
2023-05-13T12:04:41.851Z,130.93
2023-05-13T12:05:41.886Z,130.36
2023-05-13T12:06:41.775Z,127.59
2023-05-13T12:07:41.764Z,126.78
2023-05-13T12:08:41.778Z,129.52
2023-05-13T12:09:41.769Z,132.00
2023-05-13T12:10:41.767Z,129.15
2023-05-13T12:11:41.750Z,132.10
2023-05-13T12:12:41.768Z,127.70
2023-05-13T12:13:41.736Z,128.60
2023-05-13T12:14:41.734Z,128.16
2023-05-13T12:15:41.788Z,123.06
2023-05-13T12:16:41.717Z,120.55
2023-05-13T12:17:41.721Z,114.43
2023-05-13T12:18:41.713Z,113.00
2023-05-13T12:19:41.687Z,111.44
2023-05-13T12:20:41.725Z,111.79
2023-05-13T12:21:41.689Z,107.56
2023-05-13T12:22:41.689Z,112.92
2023-05-13T12:23:41.669Z,111.95
2023-05-13T12:24:41.666Z,111.57
2023-05-13T12:25:41.776Z,108.93
2023-05-13T12:26:41.638Z,111.08
2023-05-13T12:27:41.627Z,109.72
2023-05-13T12:28:41.625Z,108.07